Time;durP1;ratioP1;P1;durP2;ratioP2;P2;SDS_P1;SDS_P2;PMS_P1;PMS_P2;Temp;Humidity;BMP_temperature;BMP_pressure;BME280_temperature;BME280_humidity;BME280_pressure;Samples;Min_cycle;Max_cycle;Signal;HPM_P1;HPM_P2
2022/08/18 14:11:07;;;;;;;9.10;8.30;;;26.30;97.60;;;;;;5068235;27;20917;-70
2022/08/18 14:13:33;;;;;;;10.00;9.07;;;26.10;97.80;;;;;;5057358;28;20237;-71
2022/08/18 14:16:17;;;;;;;10.48;8.80;;;26.10;98.00;;;;;;5046334;28;20212;-70
2022/08/18 14:18:43;;;;;;;9.57;8.70;;;26.10;98.00;;;;;;5057254;28;20193;-71
2022/08/18 14:27:53;;;;;;;10.45;8.93;;;26.10;98.00;;;;;;5067253;28;20156;-71
2022/08/18 14:30:18;;;;;;;10.55;9.00;;;26.00;97.30;;;;;;5062589;27;20259;-71
2022/08/18 14:32:57;;;;;;;13.52;8.57;;;26.00;97.90;;;;;;5047090;28;20195;-71
2022/08/18 14:35:23;;;;;;;10.32;8.77;;;26.00;97.20;;;;;;5045858;28;20173;-71
2022/08/18 14:37:49;;;;;;;9.77;8.93;;;26.00;97.30;;;;;;5046507;28;20171;-72
2022/08/18 14:40:16;;;;;;;9.75;8.95;;;26.10;98.10;;;;;;5065545;28;20638;-71
2022/08/18 14:42:41;;;;;;;9.88;9.05;;;26.10;97.60;;;;;;5060514;28;20624;-72
2022/08/18 14:45:08;;;;;;;9.38;8.25;;;26.00;97.40;;;;;;5065701;28;20280;-71
2022/08/18 14:47:34;;;;;;;9.43;8.63;;;25.90;97.30;;;;;;5066134;28;20273;-71
2022/08/18 14:50:00;;;;;;;10.75;9.80;;;25.80;97.80;;;;;;5065276;28;20288;-72
2022/08/18 14:52:26;;;;;;;11.07;9.45;;;25.80;98.00;;;;;;5065942;27;20198;-71
2022/08/18 14:54:54;;;;;;;10.00;9.18;;;25.80;98.20;;;;;;5054858;27;20230;-71
2022/08/18 14:57:22;;;;;;;9.40;8.60;;;25.80;98.00;;;;;;5065658;27;20264;-71
2022/08/18 14:59:49;;;;;;;9.05;8.15;;;25.80;97.60;;;;;;5051199;28;20189;-71
2022/08/18 15:02:45;;;;;;;9.93;9.02;;;25.90;97.20;;;;;;5047079;28;20229;-71
2022/08/18 15:05:12;;;;;;;9.95;9.00;;;26.00;97.40;;;;;;5066378;27;20162;-71
2022/08/18 15:11:06;;;;;;;9.20;8.40;;;26.10;96.80;;;;;;5066745;28;20196;-71
2022/08/18 15:13:40;;;;;;;9.15;8.27;;;26.20;96.60;;;;;;5065396;28;20692;-71
2022/08/18 15:16:12;;;;;;;9.50;8.70;;;26.10;96.60;;;;;;5065285;28;20158;-71
2022/08/18 15:18:39;;;;;;;12.10;8.60;;;26.00;96.10;;;;;;5066029;27;20171;-71
2022/08/18 15:26:34;;;;;;;10.02;8.20;;;25.80;96.50;;;;;;5053155;28;20189;-71
2022/08/18 15:29:00;;;;;;;9.50;8.70;;;25.70;96.40;;;;;;5051402;28;20206;-71
2022/08/18 15:31:26;;;;;;;10.00;8.35;;;25.70;96.60;;;;;;5051404;28;20166;-71
2022/08/18 15:33:53;;;;;;;9.40;8.55;;;25.70;96.60;;;;;;5051774;28;20190;-82
2022/08/18 15:36:20;;;;;;;9.35;8.45;;;25.70;96.90;;;;;;5051720;28;20182;-71
2022/08/18 15:38:49;;;;;;;9.15;8.25;;;25.70;96.80;;;;;;5051824;28;20178;-71
2022/08/18 15:41:34;;;;;;;11.25;8.75;;;25.70;97.10;;;;;;5051344;28;20175;-71
2022/08/18 15:44:02;;;;;;;9.52;8.65;;;25.70;97.20;;;;;;5052738;28;20197;-71
2022/08/18 15:46:30;;;;;;;10.10;9.07;;;25.70;97.30;;;;;;5051262;28;20653;-71
2022/08/18 15:48:56;;;;;;;10.43;9.50;;;25.70;97.10;;;;;;5051475;28;20178;-71
2022/08/18 15:51:22;;;;;;;10.40;9.15;;;25.70;97.10;;;;;;5051622;28;20315;-71
2022/08/18 15:53:47;;;;;;;10.70;9.57;;;25.60;97.40;;;;;;5052497;28;20194;-71
2022/08/18 15:56:21;;;;;;;11.90;9.57;;;25.60;97.30;;;;;;5051441;28;20174;-71
2022/08/18 15:58:48;;;;;;;10.35;9.32;;;25.60;97.70;;;;;;5051123;28;20192;-71
2022/08/18 16:01:22;;;;;;;10.18;9.32;;;25.70;97.70;;;;;;5052546;28;20175;-71
2022/08/18 16:03:51;;;;;;;10.80;9.27;;;25.70;97.50;;;;;;5051043;27;20699;-71
2022/08/18 16:06:23;;;;;;;9.50;8.80;;;25.70;97.70;;;;;;5051804;28;20178;-71
2022/08/18 16:08:50;;;;;;;10.02;9.10;;;25.60;97.90;;;;;;5050674;28;20218;-71
2022/08/18 16:11:18;;;;;;;10.43;9.52;;;25.50;98.10;;;;;;5050938;28;20178;-71
2022/08/18 16:13:48;;;;;;;9.90;9.10;;;25.50;98.00;;;;;;5051059;28;20680;-71
2022/08/18 16:16:18;;;;;;;10.95;9.95;;;25.40;98.20;;;;;;5051360;28;20544;-71
2022/08/18 16:18:44;;;;;;;10.23;9.23;;;25.30;98.20;;;;;;5052102;28;20186;-71
2022/08/18 16:21:12;;;;;;;11.48;9.27;;;25.30;98.30;;;;;;5051789;28;20266;-71
2022/08/18 16:23:39;;;;;;;10.48;9.55;;;25.20;98.20;;;;;;5051177;28;20206;-71
2022/08/18 16:26:05;;;;;;;12.40;9.85;;;25.10;98.40;;;;;;5051011;28;20181;-71
2022/08/18 16:28:31;;;;;;;10.63;9.73;;;25.00;98.60;;;;;;5051113;28;20179;-71
2022/08/18 16:30:58;;;;;;;10.93;9.65;;;25.00;99.30;;;;;;5051809;28;20224;-71
2022/08/18 16:33:24;;;;;;;10.38;9.43;;;25.00;98.90;;;;;;5050688;28;20243;-71
2022/08/18 16:35:50;;;;;;;9.70;8.95;;;25.00;98.90;;;;;;5050503;28;20178;-71
2022/08/18 16:38:17;;;;;;;9.93;9.10;;;25.00;98.80;;;;;;5050931;28;20275;-71
2022/08/18 16:41:37;;;;;;;11.20;10.10;;;25.10;99.00;;;;;;5050785;28;20182;-71
2022/08/18 16:44:02;;;;;;;10.30;9.40;;;25.10;98.80;;;;;;5052015;28;20162;-72
2022/08/18 16:46:29;;;;;;;10.80;9.63;;;25.20;98.80;;;;;;5051787;28;20303;-72
2022/08/18 16:48:56;;;;;;;10.63;9.73;;;25.30;98.70;;;;;;5051065;28;20178;-72
2022/08/18 16:51:24;;;;;;;10.82;9.82;;;25.40;98.50;;;;;;5050329;28;20539;-72
2022/08/18 16:54:00;;;;;;;12.35;10.98;;;25.40;98.50;;;;;;5050296;28;20190;-72
2022/08/18 16:56:28;;;;;;;12.70;11.60;;;25.30;99.00;;;;;;5051026;28;20261;-71
2022/08/18 17:04:32;;;;;;;12.95;11.95;;;25.00;99.40;;;;;;5051812;28;20203;-71
2022/08/18 17:06:58;;;;;;;13.57;12.38;;;24.80;99.60;;;;;;5051943;28;20163;-71
2022/08/18 17:09:24;;;;;;;12.80;11.65;;;24.70;99.90;;;;;;5049743;28;20214;-71
2022/08/18 17:11:50;;;;;;;13.90;12.50;;;24.60;99.90;;;;;;5051026;28;20185;-71
2022/08/18 17:14:50;;;;;;;18.42;12.40;;;24.50;99.90;;;;;;5049855;28;20183;-71
2022/08/18 17:17:17;;;;;;;14.07;12.77;;;24.40;99.90;;;;;;5051373;28;20240;-71
2022/08/18 17:19:43;;;;;;;14.18;12.98;;;24.20;99.90;;;;;;5051103;28;20174;-71
2022/08/18 17:22:10;;;;;;;14.93;13.63;;;24.10;99.90;;;;;;5050480;28;20206;-71
2022/08/18 17:24:36;;;;;;;14.65;13.27;;;24.00;99.90;;;;;;5049714;28;20185;-71
2022/08/18 17:27:13;;;;;;;14.65;13.45;;;23.80;99.90;;;;;;5049777;28;20178;-71
2022/08/18 17:29:47;;;;;;;14.52;13.10;;;23.80;99.90;;;;;;5051081;28;20182;-71
2022/08/18 17:32:24;;;;;;;14.38;12.85;;;23.80;99.90;;;;;;5050518;28;20266;-71
2022/08/18 17:34:59;;;;;;;15.57;13.80;;;23.70;99.90;;;;;;5049515;28;20162;-71
2022/08/18 17:37:26;;;;;;;14.95;13.20;;;23.70;99.90;;;;;;5049587;28;20180;-71
2022/08/18 17:40:01;;;;;;;13.93;12.73;;;23.70;99.90;;;;;;5049649;28;20185;-71
2022/08/18 17:42:30;;;;;;;15.40;14.00;;;23.70;99.90;;;;;;5050597;28;20703;-72
2022/08/18 17:45:06;;;;;;;16.17;13.88;;;23.70;99.90;;;;;;5049108;28;20192;-72
2022/08/18 17:47:48;;;;;;;16.50;13.98;;;23.60;99.90;;;;;;5049510;28;20173;-71
2022/08/18 17:53:11;;;;;;;16.45;14.75;;;23.50;99.90;;;;;;5050446;28;20201;-71
2022/08/18 17:55:43;;;;;;;16.33;14.93;;;23.40;99.90;;;;;;5050137;28;20228;-71
2022/08/18 17:58:38;;;;;;;16.85;15.30;;;23.40;99.90;;;;;;5050799;28;20154;-71
2022/08/18 18:01:34;;;;;;;17.92;16.23;;;23.20;99.90;;;;;;5050117;28;20170;-71
2022/08/18 18:04:01;;;;;;;18.80;17.10;;;23.10;99.90;;;;;;5049133;28;20205;-71
2022/08/18 18:06:32;;;;;;;18.83;17.13;;;23.10;99.90;;;;;;5049463;28;20667;-71
2022/08/18 18:09:25;;;;;;;17.92;16.35;;;23.00;99.90;;;;;;5049661;28;20178;-72
2022/08/18 18:11:51;;;;;;;18.30;16.63;;;22.80;99.90;;;;;;5049067;28;20182;-71
2022/08/18 18:14:38;;;;;;;19.02;17.23;;;22.80;99.90;;;;;;5049049;28;20751;-71
2022/08/18 18:17:12;;;;;;;18.13;16.45;;;22.60;99.90;;;;;;5049027;28;20169;-71
2022/08/18 18:19:41;;;;;;;19.77;17.88;;;22.60;99.90;;;;;;5048979;28;20181;-71
2022/08/18 18:22:19;;;;;;;18.10;16.60;;;22.50;99.90;;;;;;5048974;28;20699;-71
2022/08/18 18:25:05;;;;;;;19.20;17.40;;;22.40;99.90;;;;;;5049879;28;20173;-71
2022/08/18 18:27:34;;;;;;;19.08;17.05;;;22.30;99.90;;;;;;5050084;28;20169;-71
2022/08/18 18:30:07;;;;;;;18.60;16.80;;;22.30;99.90;;;;;;5048787;28;20288;-71
2022/08/18 18:32:37;;;;;;;19.60;16.50;;;22.20;99.90;;;;;;5049134;28;20201;-71
2022/08/18 18:41:50;;;;;;;17.63;16.10;;;22.10;99.90;;;;;;5050497;28;20162;-71
2022/08/18 18:44:44;;;;;;;17.58;15.95;;;22.00;99.90;;;;;;5049051;28;20297;-71
2022/08/18 18:50:47;;;;;;;18.88;17.08;;;22.00;99.90;;;;;;5049958;28;20216;-71
2022/08/18 18:53:42;;;;;;;19.77;17.75;;;21.90;99.90;;;;;;5048569;28;20203;-71
2022/08/18 18:56:29;;;;;;;19.00;17.10;;;21.90;99.90;;;;;;5048972;28;20227;-71
2022/08/18 18:59:29;;;;;;;18.25;16.55;;;21.90;99.90;;;;;;5052131;28;20273;-71
2022/08/18 19:02:03;;;;;;;20.42;18.30;;;21.90;99.90;;;;;;5051981;28;20545;-71
2022/08/18 19:08:13;;;;;;;20.05;18.25;;;21.80;99.90;;;;;;5053328;28;20158;-71
2022/08/18 19:10:44;;;;;;;19.33;17.38;;;21.80;99.90;;;;;;5051883;28;20214;-71
2022/08/18 19:13:25;;;;;;;20.52;18.73;;;21.80;99.90;;;;;;5053283;28;20198;-71
2022/08/18 19:15:56;;;;;;;20.13;18.27;;;21.70;99.90;;;;;;5051815;28;20253;-71
2022/08/18 19:18:33;;;;;;;20.50;18.52;;;21.70;99.90;;;;;;5051864;28;20167;-71
2022/08/18 19:21:10;;;;;;;20.90;18.77;;;21.70;99.90;;;;;;5052311;28;20246;-71
2022/08/18 19:27:02;;;;;;;20.67;18.63;;;21.60;99.90;;;;;;5053171;28;20192;-71
2022/08/18 19:29:36;;;;;;;20.83;18.92;;;21.60;99.90;;;;;;5052338;28;20202;-71
2022/08/18 19:32:41;;;;;;;22.08;19.98;;;21.50;99.90;;;;;;5051895;28;20202;-71
2022/08/18 19:35:58;;;;;;;23.52;21.23;;;21.50;99.90;;;;;;5051626;28;20174;-71
2022/08/18 19:38:43;;;;;;;23.33;20.92;;;21.40;99.90;;;;;;5051611;27;20652;-71
2022/08/18 19:44:49;;;;;;;26.00;23.15;;;21.30;99.90;;;;;;5053027;28;20204;-71
2022/08/18 19:47:32;;;;;;;27.60;24.80;;;21.30;99.90;;;;;;5051784;28;20175;-71
2022/08/18 19:50:12;;;;;;;27.25;24.42;;;21.20;99.90;;;;;;5052250;28;20207;-71
2022/08/18 19:53:03;;;;;;;28.60;25.55;;;21.10;99.90;;;;;;5051165;28;20201;-71
2022/08/18 19:56:06;;;;;;;29.13;26.02;;;21.10;99.90;;;;;;5051189;28;20166;-71
2022/08/18 19:58:35;;;;;;;30.73;27.55;;;21.00;99.90;;;;;;5052356;28;20251;-71
2022/08/18 20:01:19;;;;;;;33.33;28.58;;;20.90;99.90;;;;;;5051891;28;20192;-71
2022/08/18 20:04:05;;;;;;;31.05;27.70;;;20.80;99.90;;;;;;5051219;28;20201;-71
2022/08/18 20:07:02;;;;;;;34.40;28.95;;;20.80;99.90;;;;;;5050959;28;20647;-71
2022/08/18 20:09:39;;;;;;;32.50;28.17;;;20.80;99.90;;;;;;5050847;28;20221;-72
2022/08/18 20:12:27;;;;;;;34.80;29.83;;;20.80;99.90;;;;;;5050798;28;20226;-71
2022/08/18 20:15:16;;;;;;;32.65;29.15;;;20.80;99.90;;;;;;5052109;28;20177;-71
2022/08/18 20:18:00;;;;;;;34.78;29.58;;;20.70;99.90;;;;;;5051711;28;20163;-71
2022/08/18 20:21:13;;;;;;;32.38;28.88;;;20.70;99.90;;;;;;5052255;28;20162;-71
2022/08/18 20:24:25;;;;;;;32.63;28.98;;;20.60;99.90;;;;;;5050543;28;20198;-71
2022/08/18 20:26:50;;;;;;;37.38;29.83;;;20.70;99.90;;;;;;5051614;28;20182;-71
2022/08/18 20:29:42;;;;;;;36.33;30.20;;;20.70;99.90;;;;;;5050914;28;20205;-71
2022/08/18 20:32:28;;;;;;;38.40;30.42;;;20.70;99.90;;;;;;5051518;28;20640;-71
2022/08/18 20:35:30;;;;;;;37.65;30.38;;;20.60;99.90;;;;;;5051030;28;20692;-71
2022/08/18 20:42:08;;;;;;;34.47;29.08;;;20.60;99.90;;;;;;5052004;28;20183;-71
2022/08/18 20:44:49;;;;;;;33.58;29.38;;;20.50;99.90;;;;;;5052243;28;20155;-71
2022/08/18 20:47:17;;;;;;;37.08;29.85;;;20.50;99.90;;;;;;5050361;28;20174;-71
2022/08/18 20:49:49;;;;;;;36.42;29.85;;;20.50;99.90;;;;;;5050162;28;20206;-71
2022/08/18 20:52:22;;;;;;;32.85;29.20;;;20.50;99.90;;;;;;5050564;28;20198;-71
2022/08/18 20:55:14;;;;;;;38.28;29.65;;;20.50;99.90;;;;;;5051852;28;20207;-71
2022/08/18 20:58:21;;;;;;;32.92;28.77;;;20.50;99.90;;;;;;5050478;28;20181;-71
2022/08/18 21:00:50;;;;;;;33.05;29.15;;;20.40;99.90;;;;;;5050227;28;20257;-71
2022/08/18 21:03:19;;;;;;;32.88;29.38;;;20.40;99.90;;;;;;5051266;28;20201;-71
2022/08/18 21:05:48;;;;;;;31.80;28.33;;;20.40;99.90;;;;;;5051213;28;20210;-71
2022/08/18 21:08:15;;;;;;;34.83;28.08;;;20.40;99.90;;;;;;5050546;28;20645;-71
2022/08/18 21:11:22;;;;;;;32.83;28.20;;;20.40;99.90;;;;;;5051134;28;20292;-71
2022/08/18 21:13:50;;;;;;;38.63;29.88;;;20.40;99.90;;;;;;5049960;28;20284;-71
2022/08/18 21:16:22;;;;;;;31.67;27.23;;;20.30;99.90;;;;;;5049994;28;20178;-71
2022/08/18 21:19:03;;;;;;;30.05;26.85;;;20.30;99.90;;;;;;5050127;28;20269;-71
2022/08/18 21:21:50;;;;;;;31.25;26.67;;;20.30;99.90;;;;;;5050624;28;20640;-71
2022/08/18 21:24:27;;;;;;;31.83;27.10;;;20.30;99.90;;;;;;5050710;28;20162;-71
2022/08/18 21:26:56;;;;;;;30.75;26.42;;;20.30;99.90;;;;;;5049792;28;20197;-71
2022/08/18 21:29:22;;;;;;;29.80;25.23;;;20.30;99.90;;;;;;5050862;28;20281;-71
2022/08/18 21:31:47;;;;;;;31.65;26.17;;;20.40;99.90;;;;;;5050900;28;20231;-71
2022/08/18 21:34:27;;;;;;;27.90;24.98;;;20.40;99.90;;;;;;5049640;28;20171;-71
2022/08/18 21:36:56;;;;;;;27.33;24.38;;;20.40;99.90;;;;;;5049622;28;20165;-71
2022/08/18 21:39:23;;;;;;;27.83;24.90;;;20.40;99.90;;;;;;5049804;28;20217;-71
2022/08/18 21:41:54;;;;;;;27.83;24.83;;;20.40;99.90;;;;;;5049450;28;20250;-71
2022/08/18 21:44:53;;;;;;;28.88;24.58;;;20.40;99.90;;;;;;5049503;28;20163;-71
2022/08/18 21:47:31;;;;;;;27.65;24.70;;;20.40;99.90;;;;;;5050950;28;20155;-71
2022/08/18 21:50:09;;;;;;;27.38;24.63;;;20.40;99.90;;;;;;5050588;28;20300;-71
2022/08/18 21:52:38;;;;;;;29.92;25.83;;;20.40;99.90;;;;;;5050757;28;20273;-71
2022/08/18 21:55:18;;;;;;;28.40;25.30;;;20.40;99.90;;;;;;5049468;28;20549;-71
2022/08/18 21:57:49;;;;;;;28.77;25.25;;;20.40;99.90;;;;;;5049490;28;20584;-71
2022/08/18 22:00:34;;;;;;;29.17;26.00;;;20.40;99.90;;;;;;5050086;28;20186;-71
2022/08/18 22:03:21;;;;;;;27.85;24.85;;;20.40;99.90;;;;;;5049073;28;20224;-71
2022/08/18 22:15:41;;;;;;;29.73;26.58;;;20.40;99.90;;;;;;5050824;28;20174;-71
2022/08/18 22:18:38;;;;;;;29.52;25.60;;;20.40;99.90;;;;;;5050320;28;20166;-71
2022/08/18 22:21:24;;;;;;;28.27;25.20;;;20.40;99.90;;;;;;5050549;28;20209;-71
2022/08/18 22:26:37;;;;;;;27.67;24.77;;;20.40;99.90;;;;;;5050384;28;20576;-71
2022/08/18 22:29:06;;;;;;;29.27;25.27;;;20.40;99.90;;;;;;5048838;28;20179;-71
2022/08/18 22:31:56;;;;;;;27.90;25.00;;;20.40;99.90;;;;;;5050258;28;20174;-71
2022/08/18 22:34:27;;;;;;;28.35;25.27;;;20.40;99.90;;;;;;5052449;28;20724;-71
2022/08/18 22:36:54;;;;;;;28.63;25.52;;;20.40;99.90;;;;;;5052421;28;20174;-71
2022/08/18 22:39:27;;;;;;;28.10;24.63;;;20.40;99.90;;;;;;5052945;28;20193;-71
2022/08/18 22:41:53;;;;;;;28.52;24.35;;;20.40;99.90;;;;;;5053850;28;20204;-71
2022/08/18 22:44:19;;;;;;;28.15;25.20;;;20.30;99.90;;;;;;5052650;28;20193;-71
2022/08/18 22:46:44;;;;;;;27.27;24.50;;;20.30;99.90;;;;;;5053058;28;20187;-71
2022/08/18 22:49:10;;;;;;;27.50;24.58;;;20.30;99.90;;;;;;5053287;28;20181;-71
2022/08/18 22:51:36;;;;;;;26.45;23.65;;;20.30;99.90;;;;;;5052105;28;20234;-71
2022/08/18 22:54:06;;;;;;;28.73;25.73;;;20.30;99.90;;;;;;5052084;28;20680;-71
2022/08/18 22:59:54;;;;;;;28.30;25.27;;;20.30;99.90;;;;;;5053527;28;20161;-71
2022/08/18 23:02:20;;;;;;;27.40;24.13;;;20.30;99.90;;;;;;5053342;28;20194;-71
2022/08/18 23:04:46;;;;;;;28.88;24.10;;;20.30;99.90;;;;;;5053183;28;20190;-71
2022/08/18 23:07:12;;;;;;;26.67;23.67;;;20.30;99.90;;;;;;5053096;28;20170;-71
2022/08/18 23:10:21;;;;;;;26.77;23.98;;;20.30;99.90;;;;;;5052100;28;20254;-71
2022/08/18 23:12:47;;;;;;;27.02;24.20;;;20.30;99.90;;;;;;5053582;28;20680;-71
2022/08/18 23:15:15;;;;;;;26.52;23.83;;;20.40;99.90;;;;;;5052037;28;20213;-71
2022/08/18 23:17:42;;;;;;;28.13;25.20;;;20.30;99.90;;;;;;5051713;28;20183;-71
2022/08/18 23:20:12;;;;;;;27.13;24.00;;;20.30;99.90;;;;;;5052883;28;20182;-71
2022/08/18 23:22:39;;;;;;;28.13;25.25;;;20.20;99.90;;;;;;5052202;28;20201;-71
2022/08/18 23:25:07;;;;;;;26.35;23.70;;;20.20;99.90;;;;;;5052560;28;20220;-71
2022/08/18 23:27:32;;;;;;;27.33;24.42;;;20.20;99.90;;;;;;5052456;28;20178;-71
2022/08/18 23:29:58;;;;;;;27.00;24.00;;;20.20;99.90;;;;;;5051835;28;20568;-71
2022/08/18 23:32:23;;;;;;;26.45;23.80;;;20.20;99.90;;;;;;5052703;28;20201;-71
2022/08/18 23:34:49;;;;;;;27.38;24.55;;;20.20;99.90;;;;;;5052616;28;20181;-71
2022/08/18 23:37:17;;;;;;;26.70;24.02;;;20.20;99.90;;;;;;5051475;28;20234;-71
2022/08/18 23:39:46;;;;;;;27.73;23.98;;;20.20;99.90;;;;;;5052679;28;20250;-71
2022/08/18 23:42:13;;;;;;;26.23;23.30;;;20.10;99.90;;;;;;5051124;28;20229;-71
2022/08/18 23:44:39;;;;;;;24.75;22.15;;;20.10;99.90;;;;;;5052888;28;20261;-71
2022/08/18 23:47:05;;;;;;;24.02;21.52;;;20.10;99.90;;;;;;5052497;28;20608;-71
2022/08/18 23:49:31;;;;;;;25.98;23.17;;;20.00;99.90;;;;;;5052122;28;20206;-71
2022/08/18 23:52:30;;;;;;;22.95;20.65;;;19.90;99.90;;;;;;5051953;28;20204;-71
2022/08/18 23:54:56;;;;;;;24.98;22.48;;;19.90;99.90;;;;;;5052743;28;20183;-71
2022/08/18 23:57:38;;;;;;;23.77;21.17;;;19.80;99.90;;;;;;5051213;28;20206;-71
